createdAt,value
2023-05-03T00:01:23.003Z,8.94
2023-05-03T00:03:54.429Z,8.93
2023-05-03T00:06:26.313Z,8.91
2023-05-03T00:08:57.830Z,8.84
2023-05-03T00:11:29.474Z,8.77
2023-05-03T00:14:00.956Z,8.62
2023-05-03T00:16:32.876Z,8.62
2023-05-03T00:19:04.485Z,7.31
2023-05-03T00:21:36.208Z,8.55
2023-05-03T00:24:07.681Z,8.45
2023-05-03T00:26:39.713Z,8.37
2023-05-03T00:29:11.182Z,8.28
2023-05-03T00:31:42.956Z,8.27
2023-05-03T00:34:14.937Z,8.25
2023-05-03T00:36:46.700Z,8.15
2023-05-03T00:39:18.157Z,8.10
2023-05-03T00:41:49.659Z,8.02
2023-05-03T00:44:21.110Z,7.92
2023-05-03T00:46:52.632Z,7.83
2023-05-03T00:49:24.132Z,7.76
2023-05-03T00:51:55.625Z,7.74
2023-05-03T00:54:27.061Z,7.66
2023-05-03T00:56:58.706Z,7.60
2023-05-03T00:59:30.152Z,7.45
2023-05-03T01:02:01.743Z,7.40
2023-05-03T01:04:33.438Z,7.35
2023-05-03T01:07:05.233Z,7.30
2023-05-03T01:09:36.673Z,7.27
2023-05-03T01:12:08.314Z,7.21
2023-05-03T01:14:39.765Z,7.15
2023-05-03T01:17:11.629Z,7.10
2023-05-03T01:19:43.090Z,7.05
2023-05-03T01:22:14.954Z,7.00
2023-05-03T01:24:46.405Z,6.97
2023-05-03T01:27:18.360Z,6.92
2023-05-03T01:29:49.832Z,6.87
2023-05-03T01:32:21.652Z,6.78
2023-05-03T01:34:53.345Z,6.73
2023-05-03T01:37:25.153Z,6.71
2023-05-03T01:39:56.635Z,6.67
2023-05-03T01:42:28.467Z,6.64
2023-05-03T01:45:00.000Z,6.61
2023-05-03T01:47:31.947Z,6.54
2023-05-03T01:50:03.713Z,6.50
2023-05-03T01:52:35.756Z,6.47
2023-05-03T01:55:07.185Z,6.45
2023-05-03T01:57:38.953Z,6.40
2023-05-03T02:00:10.460Z,6.37
2023-05-03T02:02:41.991Z,6.33
2023-05-03T02:05:13.558Z,6.29
2023-05-03T02:07:45.411Z,6.24
2023-05-03T02:10:16.915Z,6.24
2023-05-03T02:12:48.845Z,6.20
2023-05-03T02:15:20.805Z,6.15
2023-05-03T02:17:53.784Z,6.10
2023-05-03T02:20:25.633Z,6.09
2023-05-03T02:22:57.126Z,6.04
2023-05-03T02:25:28.969Z,5.99
2023-05-03T02:28:00.451Z,5.95
2023-05-03T02:30:32.473Z,5.90
2023-05-03T02:33:04.112Z,5.89
2023-05-03T02:35:36.207Z,5.84
2023-05-03T02:38:07.682Z,5.82
2023-05-03T02:40:39.435Z,5.79
2023-05-03T02:43:10.940Z,5.76
2023-05-03T02:45:42.856Z,5.73
2023-05-03T02:48:14.311Z,5.74
2023-05-03T02:50:45.968Z,5.73
2023-05-03T02:53:17.426Z,5.69
2023-05-03T02:55:49.289Z,5.69
2023-05-03T02:58:20.802Z,5.64
2023-05-03T03:00:52.355Z,5.62
2023-05-03T03:03:23.996Z,5.60
2023-05-03T03:05:55.566Z,5.60
2023-05-03T03:08:27.029Z,5.60
2023-05-03T03:10:58.898Z,5.57
2023-05-03T03:13:30.548Z,5.55
2023-05-03T03:16:02.090Z,5.56
2023-05-03T03:18:33.959Z,5.55
2023-05-03T03:21:05.483Z,5.54
2023-05-03T03:23:36.985Z,5.55
2023-05-03T03:26:08.430Z,5.53
2023-05-03T03:28:40.287Z,5.49
2023-05-03T03:31:11.881Z,5.51
2023-05-03T03:33:43.782Z,5.50
2023-05-03T03:36:15.315Z,5.50
2023-05-03T03:38:46.804Z,5.48
2023-05-03T03:41:18.255Z,5.50
2023-05-03T03:43:49.764Z,5.48
2023-05-03T03:46:22.315Z,5.44
2023-05-03T03:48:53.864Z,5.44
2023-05-03T03:51:25.368Z,5.45
2023-05-03T03:53:56.877Z,5.45
2023-05-03T03:56:28.354Z,5.47
2023-05-03T04:01:52.840Z,5.47
2023-05-03T04:04:24.983Z,5.51
2023-05-03T04:06:56.519Z,5.51
2023-05-03T04:09:28.182Z,5.53
2023-05-03T04:11:59.626Z,5.54
2023-05-03T04:14:31.385Z,5.62
2023-05-03T04:17:02.936Z,5.65
2023-05-03T04:19:34.750Z,5.75
2023-05-03T04:22:06.201Z,5.79
2023-05-03T04:24:37.671Z,5.86
2023-05-03T04:27:09.147Z,5.94
2023-05-03T04:29:40.950Z,5.95
2023-05-03T04:32:12.424Z,5.99
2023-05-03T04:34:44.382Z,6.10
2023-05-03T04:37:15.929Z,6.20
2023-05-03T04:39:47.637Z,6.30
2023-05-03T04:42:19.092Z,6.27
2023-05-03T04:44:50.593Z,6.44
2023-05-03T04:47:22.093Z,6.52
2023-05-03T04:49:53.576Z,6.55
2023-05-03T04:52:25.050Z,6.71
2023-05-03T04:54:56.543Z,6.83
2023-05-03T04:57:28.023Z,6.87
2023-05-03T04:59:59.841Z,6.97
2023-05-03T05:02:31.370Z,7.05
2023-05-03T05:05:03.160Z,7.09
2023-05-03T05:07:34.638Z,7.26
2023-05-03T05:10:06.489Z,7.41
2023-05-03T05:12:37.970Z,7.59
2023-05-03T05:15:09.751Z,7.66
2023-05-03T05:17:41.369Z,7.74
2023-05-03T05:20:13.021Z,7.75
2023-05-03T05:22:44.599Z,7.94
2023-05-03T05:25:16.458Z,8.03
2023-05-03T05:27:47.924Z,8.16
2023-05-03T05:30:19.821Z,8.11
2023-05-03T05:35:29.003Z,8.49
2023-05-03T05:38:00.517Z,8.71
2023-05-03T05:40:32.448Z,8.87
2023-05-03T05:43:03.942Z,9.01
2023-05-03T05:45:35.819Z,9.13
2023-05-03T05:48:07.317Z,9.27
2023-05-03T05:50:39.040Z,9.22
2023-05-03T05:53:10.509Z,9.47
2023-05-03T05:55:42.573Z,9.54
2023-05-03T05:58:14.051Z,9.85
2023-05-03T06:00:45.784Z,9.78
2023-05-03T06:03:17.294Z,9.61
2023-05-03T06:05:49.059Z,9.97
2023-05-03T06:08:20.613Z,10.08
2023-05-03T06:10:52.088Z,10.36
2023-05-03T06:13:23.947Z,10.37
2023-05-03T06:15:55.404Z,10.31
2023-05-03T06:18:27.232Z,10.48
2023-05-03T06:20:58.759Z,10.54
2023-05-03T06:23:33.587Z,10.52
2023-05-03T06:26:05.074Z,10.49
2023-05-03T06:28:36.849Z,10.72
2023-05-03T06:31:08.431Z,10.74
2023-05-03T06:33:40.307Z,10.76
2023-05-03T06:36:11.786Z,10.97
2023-05-03T06:38:43.609Z,11.08
2023-05-03T06:41:15.105Z,11.18
2023-05-03T06:43:49.285Z,11.44
2023-05-03T06:46:23.116Z,11.56
2023-05-03T06:48:54.610Z,11.74
2023-05-03T06:51:26.091Z,12.09
2023-05-03T06:53:57.938Z,12.08
2023-05-03T06:56:29.392Z,12.44
2023-05-03T06:59:01.194Z,12.09
2023-05-03T07:01:32.705Z,12.42
2023-05-03T07:04:04.624Z,12.20
2023-05-03T07:06:48.265Z,12.26
2023-05-03T07:12:01.121Z,12.83
2023-05-03T07:14:33.029Z,12.83
2023-05-03T07:17:04.536Z,13.18
2023-05-03T07:19:36.345Z,13.48
2023-05-03T07:22:07.817Z,13.22
2023-05-03T07:24:39.512Z,13.39
2023-05-03T07:27:11.069Z,13.44
2023-05-03T07:29:42.767Z,13.53
2023-05-03T07:32:14.271Z,13.39
2023-05-03T07:34:46.029Z,13.93
2023-05-03T07:37:17.512Z,14.00
2023-05-03T07:39:52.213Z,13.84
2023-05-03T07:42:23.965Z,13.65
2023-05-03T07:44:55.521Z,14.10
2023-05-03T07:47:27.334Z,13.94
2023-05-03T07:49:58.853Z,14.09
2023-05-03T07:52:30.490Z,13.92
2023-05-03T07:55:02.046Z,14.38
2023-05-03T07:57:33.830Z,14.95
2023-05-03T08:00:05.517Z,14.71
2023-05-03T08:02:37.211Z,13.75
2023-05-03T08:05:08.912Z,13.42
2023-05-03T08:07:40.751Z,13.51
2023-05-03T08:10:12.217Z,14.01
2023-05-03T08:12:44.010Z,14.39
2023-05-03T08:15:15.465Z,14.44
2023-05-03T08:17:47.180Z,14.79
2023-05-03T08:20:18.696Z,14.65
2023-05-03T08:22:50.197Z,15.19
2023-05-03T08:25:21.718Z,15.89
2023-05-03T08:27:53.187Z,15.44
2023-05-03T08:30:24.645Z,14.92
2023-05-03T08:32:56.157Z,15.04
2023-05-03T08:35:27.748Z,14.22
2023-05-03T08:37:59.571Z,14.74
2023-05-03T08:40:31.033Z,15.64
2023-05-03T08:43:02.843Z,16.06
2023-05-03T08:45:34.302Z,16.61
2023-05-03T08:48:05.830Z,16.51
2023-05-03T08:50:37.307Z,17.28
2023-05-03T08:53:09.129Z,16.18
2023-05-03T08:55:40.942Z,16.60
2023-05-03T08:58:12.514Z,16.32
2023-05-03T09:00:44.268Z,16.00
2023-05-03T09:03:15.832Z,15.92
2023-05-03T09:05:47.810Z,17.01
2023-05-03T09:08:19.278Z,17.19
2023-05-03T09:10:50.757Z,17.71
2023-05-03T09:13:22.670Z,17.87
2023-05-03T09:15:54.479Z,16.47
2023-05-03T09:18:26.386Z,16.16
2023-05-03T09:20:59.077Z,15.90
2023-05-03T09:23:31.178Z,15.41
2023-05-03T09:26:02.819Z,16.03
2023-05-03T09:28:34.372Z,16.32
2023-05-03T09:31:06.179Z,15.72
2023-05-03T09:33:37.637Z,15.93
2023-05-03T09:36:09.085Z,17.12
2023-05-03T09:38:40.537Z,17.69
2023-05-03T09:41:12.258Z,17.01
2023-05-03T09:43:43.802Z,17.49
2023-05-03T09:46:15.496Z,17.07
2023-05-03T09:48:47.000Z,16.47
2023-05-03T09:51:18.519Z,16.70
2023-05-03T09:53:49.991Z,17.94
2023-05-03T09:56:21.891Z,18.60
2023-05-03T09:58:53.671Z,19.28
2023-05-03T10:01:25.644Z,19.38
2023-05-03T10:03:57.598Z,18.90
2023-05-03T10:06:29.161Z,18.46
2023-05-03T10:09:01.292Z,18.83
2023-05-03T10:11:32.732Z,18.55
2023-05-03T10:14:04.501Z,17.39
2023-05-03T10:16:36.065Z,17.57
2023-05-03T10:19:07.817Z,18.02
2023-05-03T10:21:39.285Z,17.88
2023-05-03T10:24:10.971Z,18.11
2023-05-03T10:26:42.428Z,17.97
2023-05-03T10:29:14.063Z,18.47
2023-05-03T10:31:45.578Z,18.68
2023-05-03T10:34:17.089Z,18.82
2023-05-03T10:36:50.055Z,19.08
2023-05-03T10:39:21.710Z,18.67
2023-05-03T10:41:53.507Z,19.44
2023-05-03T10:44:25.040Z,19.08
2023-05-03T10:46:56.760Z,18.80
2023-05-03T10:49:28.221Z,19.34
2023-05-03T10:52:00.033Z,19.25
2023-05-03T10:54:31.499Z,18.21
2023-05-03T10:57:03.243Z,17.88
2023-05-03T10:59:34.687Z,18.17
2023-05-03T11:02:06.725Z,18.73
2023-05-03T11:04:38.387Z,19.87
2023-05-03T11:07:09.878Z,19.40
2023-05-03T11:09:41.999Z,18.98
2023-05-03T11:12:13.483Z,19.27
2023-05-03T11:14:45.311Z,19.56
2023-05-03T11:17:16.812Z,19.74
2023-05-03T11:19:48.508Z,20.30
2023-05-03T11:22:19.984Z,18.76
2023-05-03T11:24:51.893Z,19.45
2023-05-03T11:27:23.718Z,18.88
2023-05-03T11:29:55.646Z,19.86
2023-05-03T11:32:27.456Z,20.76
2023-05-03T11:34:58.954Z,20.73
2023-05-03T11:37:30.574Z,20.83
2023-05-03T11:40:02.037Z,21.37
2023-05-03T11:42:33.586Z,20.76
2023-05-03T11:45:05.442Z,19.71
2023-05-03T11:47:37.180Z,19.75
2023-05-03T11:50:08.707Z,19.24
2023-05-03T11:52:40.185Z,18.07
2023-05-03T11:55:11.640Z,18.15
2023-05-03T11:57:43.805Z,17.85
2023-05-03T12:00:15.325Z,19.48
2023-05-03T12:02:47.003Z,20.29
2023-05-03T12:05:19.482Z,20.28
2023-05-03T12:07:51.790Z,20.42
2023-05-03T12:10:26.554Z,19.98
2023-05-03T12:13:00.117Z,20.04
2023-05-03T12:15:33.931Z,19.24
2023-05-03T12:18:05.919Z,18.89
2023-05-03T12:23:14.957Z,19.66
2023-05-03T12:25:49.231Z,18.78
2023-05-03T12:28:21.502Z,19.39
2023-05-03T12:30:53.662Z,20.05
2023-05-03T12:33:28.136Z,20.72
2023-05-03T12:36:02.216Z,20.27
2023-05-03T12:38:37.495Z,20.70
2023-05-03T12:41:09.584Z,20.43
2023-05-03T12:43:43.424Z,20.31
2023-05-03T12:46:33.077Z,20.56
2023-05-03T12:49:07.718Z,19.52
2023-05-03T12:51:42.583Z,19.81
2023-05-03T12:54:18.589Z,19.80
2023-05-03T12:56:54.790Z,19.82
2023-05-03T13:04:56.798Z,21.46
2023-05-03T13:07:29.231Z,21.56
2023-05-03T13:12:36.447Z,22.01
2023-05-03T13:15:08.362Z,21.85
2023-05-03T13:17:40.040Z,21.49
2023-05-03T13:20:11.846Z,22.01
2023-05-03T13:22:43.300Z,22.44
2023-05-03T13:25:15.408Z,22.63
2023-05-03T13:27:46.916Z,22.80
2023-05-03T13:30:18.579Z,22.48
2023-05-03T13:32:50.060Z,22.98
2023-05-03T13:35:21.882Z,23.37
2023-05-03T13:37:53.376Z,23.57
2023-05-03T13:40:25.242Z,23.45
2023-05-03T13:42:57.056Z,23.14
2023-05-03T13:45:28.848Z,22.78
2023-05-03T13:48:15.685Z,22.71
2023-05-03T13:50:49.681Z,22.92
2023-05-03T13:53:21.552Z,22.89
2023-05-03T13:55:54.214Z,23.02
2023-05-03T13:58:25.969Z,22.68
2023-05-03T14:00:57.574Z,22.55
2023-05-03T14:03:29.593Z,23.26
2023-05-03T14:06:01.120Z,23.76
2023-05-03T14:08:32.924Z,23.62
2023-05-03T14:11:06.243Z,23.60
2023-05-03T14:13:53.988Z,22.46
2023-05-03T14:16:39.950Z,22.70
2023-05-03T14:19:12.805Z,21.62
2023-05-03T14:21:44.765Z,21.85
2023-05-03T14:24:16.220Z,22.07
2023-05-03T14:26:47.690Z,22.85
2023-05-03T14:29:19.140Z,21.65
2023-05-03T14:31:50.884Z,21.39
2023-05-03T14:34:22.757Z,22.38
2023-05-03T14:36:54.549Z,23.14
2023-05-03T14:39:26.513Z,24.20
2023-05-03T14:41:58.003Z,24.25
2023-05-03T14:44:30.016Z,25.06
2023-05-03T14:47:01.606Z,24.93
2023-05-03T14:49:33.623Z,25.03
2023-05-03T14:52:05.085Z,25.21
2023-05-03T14:54:36.707Z,25.17
2023-05-03T14:57:08.188Z,25.13
2023-05-03T14:59:39.715Z,25.73
2023-05-03T15:02:11.634Z,25.83
2023-05-03T15:04:43.595Z,25.23
2023-05-03T15:07:15.440Z,25.08
2023-05-03T15:09:46.900Z,25.08
2023-05-03T15:12:18.792Z,23.04
2023-05-03T15:14:50.345Z,23.72
2023-05-03T15:17:22.274Z,24.19
2023-05-03T15:19:53.738Z,23.82
2023-05-03T15:22:25.659Z,23.70
2023-05-03T15:24:57.190Z,24.26
2023-05-03T15:27:28.980Z,24.08
2023-05-03T15:30:00.587Z,23.56
2023-05-03T15:32:32.152Z,23.88
2023-05-03T15:35:04.098Z,23.52
2023-05-03T15:37:35.749Z,22.98
2023-05-03T15:40:07.483Z,23.15
2023-05-03T15:42:39.221Z,23.53
2023-05-03T15:45:11.014Z,22.73
2023-05-03T15:47:42.703Z,22.99
2023-05-03T15:50:14.470Z,22.61
2023-05-03T15:52:45.937Z,22.40
2023-05-03T15:55:17.816Z,21.75
2023-05-03T15:57:49.274Z,21.37
2023-05-03T16:00:20.831Z,21.27
2023-05-03T16:02:52.465Z,20.37
2023-05-03T16:05:24.245Z,20.43
2023-05-03T16:07:56.176Z,20.12
2023-05-03T16:10:28.095Z,19.50
2023-05-03T16:12:59.999Z,19.28
2023-05-03T16:15:31.513Z,18.75
2023-05-03T16:18:03.060Z,18.40
2023-05-03T16:20:34.510Z,18.31
2023-05-03T16:23:06.489Z,18.14
2023-05-03T16:25:37.948Z,17.47
2023-05-03T16:28:09.416Z,17.55
2023-05-03T16:30:40.874Z,17.46
2023-05-03T16:33:12.949Z,17.29
2023-05-03T16:35:44.884Z,17.37
2023-05-03T16:38:16.383Z,17.10
2023-05-03T16:40:48.141Z,17.03
2023-05-03T16:43:19.660Z,16.83
2023-05-03T16:45:51.472Z,16.75
2023-05-03T16:48:22.993Z,16.60
2023-05-03T16:50:54.895Z,16.65
2023-05-03T16:53:26.400Z,16.66
2023-05-03T16:55:58.410Z,16.72
2023-05-03T16:58:29.918Z,16.52
2023-05-03T17:01:01.728Z,16.50
2023-05-03T17:03:33.528Z,16.46
2023-05-03T17:06:05.270Z,16.18
2023-05-03T17:08:36.804Z,16.12
2023-05-03T17:11:08.289Z,16.09
2023-05-03T17:13:39.832Z,16.02
2023-05-03T17:16:11.355Z,16.00
2023-05-03T17:18:43.216Z,15.76
2023-05-03T17:21:14.745Z,15.67
2023-05-03T17:23:46.566Z,15.73
2023-05-03T17:26:18.057Z,15.58
2023-05-03T17:28:49.899Z,15.49
2023-05-03T17:31:21.425Z,15.47
2023-05-03T17:33:53.176Z,15.41
2023-05-03T17:36:24.816Z,15.19
2023-05-03T17:38:56.672Z,15.20
2023-05-03T17:41:28.626Z,15.13
2023-05-03T17:44:00.149Z,14.98
2023-05-03T17:46:32.998Z,14.95
2023-05-03T17:49:06.061Z,14.77
2023-05-03T17:51:37.552Z,14.71
2023-05-03T17:54:09.097Z,14.72
2023-05-03T17:56:41.074Z,14.68
2023-05-03T17:59:12.546Z,14.61
2023-05-03T18:01:44.112Z,14.57
2023-05-03T18:04:15.817Z,14.44
2023-05-03T18:06:47.623Z,14.36
2023-05-03T18:09:19.677Z,14.27
2023-05-03T18:11:51.153Z,14.22
2023-05-03T18:14:22.850Z,14.15
2023-05-03T18:16:54.997Z,14.12
2023-05-03T18:19:26.704Z,13.98
2023-05-03T18:21:58.200Z,13.84
2023-05-03T18:24:30.006Z,13.79
2023-05-03T18:27:01.468Z,13.77
2023-05-03T18:29:33.142Z,13.66
2023-05-03T18:32:04.696Z,13.59
2023-05-03T18:34:36.234Z,13.56
2023-05-03T18:37:07.792Z,13.43
2023-05-03T18:39:39.258Z,13.39
2023-05-03T18:42:11.173Z,13.30
2023-05-03T18:44:42.669Z,13.23
2023-05-03T18:47:14.598Z,13.15
2023-05-03T18:49:46.201Z,13.04
2023-05-03T18:52:17.749Z,13.00
2023-05-03T18:54:49.336Z,12.92
2023-05-03T18:57:21.307Z,12.79
2023-05-03T19:00:00.783Z,12.76
2023-05-03T19:02:33.243Z,12.74
2023-05-03T19:05:05.213Z,12.69
2023-05-03T19:07:36.726Z,12.64
2023-05-03T19:10:08.553Z,12.59
2023-05-03T19:12:40.064Z,12.57
2023-05-03T19:15:11.998Z,12.49
2023-05-03T19:17:43.560Z,12.43
2023-05-03T19:20:15.128Z,12.37
2023-05-03T19:22:46.631Z,12.31
2023-05-03T19:25:18.458Z,12.26
2023-05-03T19:27:49.906Z,12.20
2023-05-03T19:30:21.763Z,12.12
2023-05-03T19:32:53.636Z,12.10
2023-05-03T19:35:25.567Z,12.02
2023-05-03T19:37:57.421Z,11.95
2023-05-03T19:40:28.918Z,11.90
2023-05-03T19:43:00.413Z,11.85
2023-05-03T19:45:31.954Z,11.80
2023-05-03T19:48:03.809Z,11.75
2023-05-03T19:50:35.341Z,11.68
2023-05-03T19:53:06.794Z,11.64
2023-05-03T19:55:38.231Z,11.59
2023-05-03T19:58:09.727Z,11.57
2023-05-03T20:00:41.190Z,11.51
2023-05-03T20:03:13.689Z,11.45
2023-05-03T20:05:45.532Z,11.40
2023-05-03T20:08:16.992Z,11.40
2023-05-03T20:10:48.848Z,11.36
2023-05-03T20:13:20.338Z,11.32
2023-05-03T20:15:52.298Z,11.25
2023-05-03T20:18:23.766Z,11.19
2023-05-03T20:20:55.516Z,11.14
2023-05-03T20:23:27.006Z,11.07
2023-05-03T20:25:58.849Z,11.02
2023-05-03T20:28:30.325Z,10.95
2023-05-03T20:31:02.163Z,10.89
2023-05-03T20:33:33.614Z,10.87
2023-05-03T20:36:05.433Z,10.86
2023-05-03T20:38:36.902Z,10.76
2023-05-03T20:41:08.828Z,10.70
2023-05-03T20:43:40.280Z,10.64
2023-05-03T20:46:12.185Z,10.61
2023-05-03T20:48:43.690Z,10.56
2023-05-03T20:51:15.466Z,10.56
2023-05-03T20:53:46.940Z,10.54
2023-05-03T20:56:18.816Z,10.51
2023-05-03T20:58:50.284Z,10.47
2023-05-03T21:01:21.864Z,10.43
2023-05-03T21:03:53.341Z,10.39
2023-05-03T21:06:25.133Z,10.30
2023-05-03T21:08:56.599Z,10.27
2023-05-03T21:11:28.354Z,10.21
2023-05-03T21:14:01.667Z,10.16
2023-05-03T21:16:33.648Z,10.13
2023-05-03T21:19:05.105Z,10.10
2023-05-03T21:21:36.921Z,10.09
2023-05-03T21:24:08.378Z,10.06
2023-05-03T21:26:40.037Z,10.01
2023-05-03T21:29:11.489Z,10.01
2023-05-03T21:31:43.225Z,9.97
2023-05-03T21:34:14.727Z,9.93
2023-05-03T21:36:46.584Z,9.87
2023-05-03T21:39:18.051Z,9.83
2023-05-03T21:41:49.823Z,9.79
2023-05-03T21:44:21.300Z,9.78
2023-05-03T21:46:53.508Z,9.78
2023-05-03T21:49:25.013Z,9.77
2023-05-03T21:51:56.836Z,9.75
2023-05-03T21:54:28.304Z,9.71
2023-05-03T21:57:00.136Z,9.70
2023-05-03T21:59:32.189Z,9.68
2023-05-03T22:02:03.691Z,9.64
2023-05-03T22:04:35.256Z,9.64
2023-05-03T22:07:06.710Z,9.62
2023-05-03T22:09:38.195Z,9.59
2023-05-03T22:12:22.757Z,9.55
2023-05-03T22:14:56.224Z,9.53
2023-05-03T22:17:27.708Z,9.51
2023-05-03T22:19:59.538Z,9.47
2023-05-03T22:22:31.008Z,9.43
2023-05-03T22:25:02.835Z,9.38
2023-05-03T22:27:34.296Z,9.33
2023-05-03T22:30:06.262Z,9.27
2023-05-03T22:32:37.915Z,9.24
2023-05-03T22:35:09.798Z,9.20
2023-05-03T22:37:44.086Z,9.16
2023-05-03T22:40:15.966Z,9.14
2023-05-03T22:42:47.440Z,9.12
2023-05-03T22:45:19.001Z,9.09
2023-05-03T22:47:50.587Z,9.04
2023-05-03T22:50:22.402Z,9.00
2023-05-03T22:52:53.870Z,9.01
2023-05-03T22:55:25.379Z,9.00
2023-05-03T22:57:56.855Z,8.99
2023-05-03T23:00:28.349Z,8.97
2023-05-03T23:02:59.985Z,8.99
2023-05-03T23:05:31.820Z,9.01
2023-05-03T23:08:03.283Z,8.99
2023-05-03T23:10:34.938Z,8.97
2023-05-03T23:13:06.461Z,8.98
2023-05-03T23:15:37.961Z,8.99
2023-05-03T23:18:09.477Z,8.97
2023-05-03T23:20:40.992Z,8.93
2023-05-03T23:23:12.431Z,8.91
2023-05-03T23:25:44.291Z,8.93
2023-05-03T23:28:15.758Z,8.89
2023-05-03T23:30:47.968Z,8.87
2023-05-03T23:33:19.803Z,8.84
2023-05-03T23:35:52.253Z,8.83
2023-05-03T23:38:23.752Z,8.77
2023-05-03T23:40:55.617Z,8.76
2023-05-03T23:43:27.131Z,8.71
2023-05-03T23:45:58.844Z,8.66
2023-05-03T23:48:30.332Z,8.61
2023-05-03T23:51:02.354Z,8.56
2023-05-03T23:53:33.810Z,8.56
2023-05-03T23:56:05.553Z,8.55
2023-05-03T23:58:37.025Z,8.50
